Time;durP1;ratioP1;P1;durP2;ratioP2;P2;SDS_P1;SDS_P2;PMS_P1;PMS_P2;Temp;Humidity;BMP_temperature;BMP_pressure;BME280_temperature;BME280_humidity;BME280_pressure;Samples;Min_cycle;Max_cycle;Signal;HPM_P1;HPM_P2
2021/09/29 00:00:48;;;;;;;6.80;2.03;;;13.40;99.90;;;;;;5051171;28;20029;-86
2021/09/29 00:03:13;;;;;;;8.57;2.05;;;13.40;99.90;;;;;;5051450;28;20067;-86
2021/09/29 00:05:39;;;;;;;5.68;1.60;;;13.40;99.90;;;;;;5051405;28;20024;-86
2021/09/29 00:08:09;;;;;;;7.47;1.92;;;13.30;99.90;;;;;;5051518;28;20408;-86
2021/09/29 00:10:36;;;;;;;8.13;1.70;;;13.30;99.90;;;;;;5052517;28;20377;-86
2021/09/29 00:13:02;;;;;;;7.60;1.92;;;13.30;99.90;;;;;;5051398;28;20029;-86
2021/09/29 00:15:28;;;;;;;8.95;1.80;;;13.30;99.90;;;;;;5051378;28;20086;-86
2021/09/29 00:17:53;;;;;;;8.05;2.25;;;13.30;99.90;;;;;;5052527;28;20124;-86
2021/09/29 00:20:19;;;;;;;6.78;1.77;;;13.30;99.90;;;;;;5052140;28;20474;-86
2021/09/29 00:22:45;;;;;;;8.20;2.05;;;13.30;99.90;;;;;;5052539;28;20029;-86
2021/09/29 00:25:13;;;;;;;10.13;2.08;;;13.30;99.90;;;;;;5051207;28;20025;-87
2021/09/29 00:27:39;;;;;;;5.10;1.65;;;13.30;99.90;;;;;;5051145;28;20108;-86
2021/09/29 00:30:07;;;;;;;7.32;1.90;;;13.30;99.90;;;;;;5051883;28;20116;-86
2021/09/29 00:32:35;;;;;;;10.18;1.60;;;13.30;99.90;;;;;;5051290;28;20106;-86
2021/09/29 00:35:01;;;;;;;6.72;1.63;;;13.30;99.90;;;;;;5052376;28;20033;-86
2021/09/29 00:37:28;;;;;;;4.97;1.70;;;13.20;99.90;;;;;;5051096;28;20029;-87
2021/09/29 00:39:53;;;;;;;8.00;2.00;;;13.20;99.90;;;;;;5050591;28;20128;-86
2021/09/29 00:42:19;;;;;;;5.57;2.00;;;13.20;99.90;;;;;;5050857;28;20571;-87
2021/09/29 00:44:45;;;;;;;8.63;1.70;;;13.20;99.90;;;;;;5051251;28;20394;-86
2021/09/29 00:47:11;;;;;;;7.43;1.67;;;13.10;99.90;;;;;;5052162;28;20063;-86
2021/09/29 00:49:37;;;;;;;8.80;1.77;;;13.20;99.90;;;;;;5050605;28;20466;-86
2021/09/29 00:52:03;;;;;;;7.20;1.60;;;13.20;99.90;;;;;;5052121;28;20142;-87
2021/09/29 00:54:29;;;;;;;8.63;1.77;;;13.20;99.90;;;;;;5050864;28;20029;-86
2021/09/29 00:56:56;;;;;;;7.43;1.88;;;13.20;99.90;;;;;;5052219;28;20036;-86
2021/09/29 00:59:22;;;;;;;4.80;1.95;;;13.20;99.90;;;;;;5050178;28;20053;-86
2021/09/29 01:01:48;;;;;;;8.23;1.60;;;13.20;99.90;;;;;;5050744;28;20068;-86
2021/09/29 01:04:15;;;;;;;8.88;2.00;;;13.20;99.90;;;;;;5050525;28;20061;-86
2021/09/29 01:06:51;;;;;;;7.93;1.65;;;13.20;99.90;;;;;;5050711;28;20033;-87
2021/09/29 01:09:41;;;;;;;5.00;1.70;;;13.20;99.90;;;;;;5050212;28;20486;-86
2021/09/29 01:12:36;;;;;;;8.65;2.15;;;13.20;99.90;;;;;;5051985;28;20032;-86
2021/09/29 01:15:09;;;;;;;6.45;1.70;;;13.20;99.90;;;;;;5052324;28;20028;-87
2021/09/29 01:17:45;;;;;;;4.95;1.48;;;13.30;99.90;;;;;;5052965;28;20036;-85
2021/09/29 01:20:19;;;;;;;5.15;1.40;;;13.30;99.90;;;;;;5051240;28;20469;-86
2021/09/29 01:22:56;;;;;;;6.32;1.65;;;13.30;99.90;;;;;;5051416;28;20040;-86
2021/09/29 01:25:24;;;;;;;7.68;1.60;;;13.30;99.90;;;;;;5051574;28;20040;-86
2021/09/29 01:27:51;;;;;;;6.10;1.40;;;13.30;99.90;;;;;;5051305;28;20498;-86
2021/09/29 01:30:17;;;;;;;5.50;1.70;;;13.30;99.90;;;;;;5050753;28;20032;-86
2021/09/29 01:32:43;;;;;;;10.00;1.60;;;13.30;99.90;;;;;;5051574;28;20052;-85
2021/09/29 01:35:09;;;;;;;9.02;2.13;;;13.30;99.90;;;;;;5051304;28;20052;-86
2021/09/29 01:37:35;;;;;;;6.25;1.92;;;13.30;99.90;;;;;;5052286;28;20491;-86
2021/09/29 01:40:01;;;;;;;6.85;2.20;;;13.30;99.90;;;;;;5051184;28;20037;-86
2021/09/29 01:42:26;;;;;;;6.90;1.50;;;13.30;99.90;;;;;;5053148;28;20125;-86
2021/09/29 01:44:52;;;;;;;5.53;1.80;;;13.30;99.90;;;;;;5053071;28;20025;-86
2021/09/29 01:47:19;;;;;;;7.13;1.60;;;13.30;99.90;;;;;;5051412;28;20124;-86
2021/09/29 01:49:48;;;;;;;7.25;1.80;;;13.30;99.90;;;;;;5051092;28;20393;-86
2021/09/29 01:52:19;;;;;;;7.22;2.00;;;13.30;99.90;;;;;;5053132;28;20056;-86
2021/09/29 01:54:49;;;;;;;6.60;1.90;;;13.30;99.90;;;;;;5052799;28;20083;-86
2021/09/29 01:57:16;;;;;;;12.10;1.63;;;13.30;99.90;;;;;;5052944;28;20029;-86
2021/09/29 01:59:43;;;;;;;5.70;1.70;;;13.20;99.90;;;;;;5052763;28;20036;-85
2021/09/29 02:02:09;;;;;;;7.97;1.95;;;13.30;99.90;;;;;;5051562;28;20056;-86
2021/09/29 02:04:35;;;;;;;10.43;1.88;;;13.20;99.90;;;;;;5051651;28;20223;-86
2021/09/29 02:07:01;;;;;;;6.15;1.63;;;13.20;99.90;;;;;;5051502;28;20022;-85
2021/09/29 02:09:28;;;;;;;7.55;1.90;;;13.30;99.90;;;;;;5052292;28;20355;-86
2021/09/29 02:11:56;;;;;;;8.05;1.80;;;13.20;99.90;;;;;;5053024;28;20021;-86
2021/09/29 02:14:23;;;;;;;6.38;1.77;;;13.30;99.90;;;;;;5056807;28;20421;-86
2021/09/29 02:16:51;;;;;;;6.18;1.88;;;13.30;99.90;;;;;;5055203;28;20025;-86
2021/09/29 02:19:17;;;;;;;6.90;1.60;;;13.30;99.90;;;;;;5054364;28;20021;-86
2021/09/29 02:21:47;;;;;;;10.35;1.95;;;13.30;99.90;;;;;;5055067;28;20029;-86
2021/09/29 02:24:13;;;;;;;;;;;13.30;99.90;;;;;;5055681;28;20481;-86
2021/09/29 02:26:39;;;;;;;6.80;1.90;;;13.30;99.90;;;;;;5054866;28;19940;-85
2021/09/29 02:29:06;;;;;;;8.65;1.77;;;13.30;99.90;;;;;;5053888;28;20025;-85
2021/09/29 02:31:33;;;;;;;9.75;1.88;;;13.40;99.90;;;;;;5054186;28;20469;-86
2021/09/29 02:33:59;;;;;;;5.85;1.52;;;13.40;99.90;;;;;;5055883;28;20135;-86
2021/09/29 02:36:24;;;;;;;6.65;1.50;;;13.40;99.90;;;;;;5054697;28;20063;-86
2021/09/29 02:38:51;;;;;;;7.68;1.80;;;13.40;99.90;;;;;;5053966;28;20056;-85
2021/09/29 02:41:19;;;;;;;5.82;2.03;;;13.40;99.90;;;;;;5054106;28;20070;-86
2021/09/29 02:43:45;;;;;;;7.38;1.63;;;13.50;99.90;;;;;;5054835;28;20029;-87
2021/09/29 02:46:11;;;;;;;6.10;1.83;;;13.40;99.90;;;;;;5054248;28;20387;-85
2021/09/29 02:48:37;;;;;;;6.70;1.80;;;13.50;99.90;;;;;;5054279;28;20021;-86
2021/09/29 02:51:03;;;;;;;7.25;1.80;;;13.50;99.90;;;;;;5052488;28;20083;-86
2021/09/29 02:53:29;;;;;;;6.78;1.70;;;13.50;99.90;;;;;;5053652;28;20451;-85
2021/09/29 02:55:57;;;;;;;7.70;2.00;;;13.50;99.90;;;;;;5054136;28;20115;-86
2021/09/29 02:58:23;;;;;;;6.82;1.90;;;13.50;99.90;;;;;;5055398;28;20021;-86
2021/09/29 03:00:49;;;;;;;5.20;1.70;;;13.50;99.90;;;;;;5055038;28;20028;-86
2021/09/29 03:03:15;;;;;;;9.73;2.22;;;13.50;99.90;;;;;;5058017;28;20025;-86
2021/09/29 03:05:41;;;;;;;9.73;2.33;;;13.50;99.90;;;;;;5052981;28;20029;-86
2021/09/29 03:08:06;;;;;;;9.20;1.60;;;13.50;99.90;;;;;;5053591;28;20032;-85
2021/09/29 03:10:32;;;;;;;6.97;1.70;;;13.60;99.90;;;;;;5052606;28;20024;-85
2021/09/29 03:12:57;;;;;;;4.38;1.58;;;13.60;99.90;;;;;;5052880;28;20057;-86
2021/09/29 03:15:23;;;;;;;6.07;2.05;;;13.60;99.90;;;;;;5053488;28;20146;-86
2021/09/29 03:17:49;;;;;;;7.15;2.03;;;13.60;99.90;;;;;;5053070;28;20434;-85
2021/09/29 03:20:14;;;;;;;7.72;1.85;;;13.50;99.90;;;;;;5054262;28;20082;-85
2021/09/29 03:22:40;;;;;;;7.60;1.92;;;13.50;99.90;;;;;;5053336;28;20025;-86
2021/09/29 03:25:06;;;;;;;6.78;1.88;;;13.60;99.90;;;;;;5054593;28;20091;-85
2021/09/29 03:27:32;;;;;;;6.28;1.60;;;13.60;99.90;;;;;;5054600;28;20114;-85
2021/09/29 03:29:57;;;;;;;6.53;1.50;;;13.60;99.90;;;;;;5053137;28;20028;-85
2021/09/29 03:32:23;;;;;;;6.82;1.92;;;13.60;99.90;;;;;;5053273;28;20486;-86
2021/09/29 03:34:49;;;;;;;10.48;2.30;;;13.60;99.90;;;;;;5053115;28;20025;-86
2021/09/29 03:37:14;;;;;;;9.35;1.85;;;13.60;99.90;;;;;;5052711;28;20032;-85
2021/09/29 03:39:40;;;;;;;4.20;1.80;;;13.60;99.90;;;;;;5052491;28;20021;-85
2021/09/29 03:42:06;;;;;;;4.65;1.67;;;13.60;99.90;;;;;;5054214;28;20102;-86
2021/09/29 03:44:32;;;;;;;6.53;1.98;;;13.60;99.90;;;;;;5052770;28;20025;-85
2021/09/29 03:46:57;;;;;;;8.93;2.20;;;13.60;99.90;;;;;;5053167;28;20074;-86
2021/09/29 03:49:23;;;;;;;8.40;1.70;;;13.50;99.90;;;;;;5052123;28;20377;-86
2021/09/29 03:51:49;;;;;;;4.55;1.85;;;13.50;99.90;;;;;;5052529;28;20018;-85
2021/09/29 03:54:14;;;;;;;5.43;1.73;;;13.50;99.90;;;;;;5052728;28;20359;-86
2021/09/29 03:56:40;;;;;;;6.93;2.22;;;13.50;99.90;;;;;;5054458;28;20033;-86
2021/09/29 03:59:05;;;;;;;7.93;2.20;;;13.50;99.90;;;;;;5051996;28;20493;-85
2021/09/29 04:01:31;;;;;;;5.20;1.75;;;13.50;99.90;;;;;;5052651;28;20025;-85
2021/09/29 04:03:57;;;;;;;5.72;2.20;;;13.50;99.90;;;;;;5052472;28;20033;-86
2021/09/29 04:06:22;;;;;;;4.82;2.00;;;13.40;99.90;;;;;;5052367;28;20404;-85
2021/09/29 04:08:48;;;;;;;4.80;2.25;;;13.40;99.90;;;;;;5052057;28;20616;-85
2021/09/29 04:11:13;;;;;;;5.28;1.95;;;13.40;99.90;;;;;;5052108;28;20021;-86
2021/09/29 04:13:39;;;;;;;6.85;2.15;;;13.30;99.90;;;;;;5052328;28;20024;-86
2021/09/29 04:16:05;;;;;;;6.00;2.08;;;13.30;99.90;;;;;;5053306;28;20023;-86
2021/09/29 04:18:31;;;;;;;6.93;2.42;;;13.30;99.90;;;;;;5052442;28;20017;-86
2021/09/29 04:20:57;;;;;;;6.65;2.00;;;13.30;99.90;;;;;;5052210;28;20028;-86
2021/09/29 04:23:22;;;;;;;8.85;2.10;;;13.30;99.90;;;;;;5052572;28;20127;-85
2021/09/29 04:25:52;;;;;;;7.55;2.38;;;13.30;99.90;;;;;;5053163;28;20032;-85
2021/09/29 04:28:19;;;;;;;7.22;2.45;;;13.30;99.90;;;;;;5053344;28;20027;-87
2021/09/29 04:30:45;;;;;;;7.28;2.10;;;13.30;99.90;;;;;;5052458;28;20104;-86
2021/09/29 04:33:11;;;;;;;7.85;2.33;;;13.20;99.90;;;;;;5053098;28;20079;-85
2021/09/29 04:35:38;;;;;;;5.72;2.08;;;13.20;99.90;;;;;;5052419;28;20029;-85
2021/09/29 04:38:05;;;;;;;7.82;2.20;;;13.10;99.90;;;;;;5052280;28;20036;-86
2021/09/29 04:40:30;;;;;;;7.00;2.10;;;13.20;99.90;;;;;;5051338;28;20371;-86
2021/09/29 04:42:56;;;;;;;5.00;2.10;;;13.20;99.90;;;;;;5051419;28;20048;-85
2021/09/29 04:45:22;;;;;;;6.63;2.20;;;13.20;99.90;;;;;;5052183;28;20021;-85
2021/09/29 04:47:47;;;;;;;5.53;2.33;;;13.30;99.90;;;;;;5052049;28;20028;-86
2021/09/29 04:50:13;;;;;;;14.52;4.85;;;13.30;99.90;;;;;;5053338;28;20025;-85
2021/09/29 04:52:39;;;;;;;10.13;3.22;;;13.30;99.90;;;;;;5052525;28;20425;-85
2021/09/29 04:55:05;;;;;;;8.63;2.30;;;13.30;99.90;;;;;;5053803;28;20502;-85
2021/09/29 04:57:32;;;;;;;5.60;2.03;;;13.30;99.90;;;;;;5055855;28;20024;-86
2021/09/29 04:59:59;;;;;;;10.73;2.58;;;13.20;99.90;;;;;;5056770;28;20029;-86
2021/09/29 05:02:24;;;;;;;8.82;3.00;;;13.20;99.90;;;;;;5057469;28;20029;-87
2021/09/29 05:04:50;;;;;;;6.00;2.38;;;13.20;99.90;;;;;;5057727;28;20490;-86
2021/09/29 05:07:19;;;;;;;8.75;2.83;;;13.20;99.90;;;;;;5057982;28;20475;-86
2021/09/29 05:09:46;;;;;;;8.05;2.33;;;13.30;99.90;;;;;;5056920;28;20385;-86
2021/09/29 05:12:31;;;;;;;9.07;2.42;;;13.20;99.90;;;;;;5057748;28;20024;-86
2021/09/29 05:14:58;;;;;;;10.70;3.25;;;13.20;99.90;;;;;;5060240;28;20029;-85
2021/09/29 05:17:24;;;;;;;8.27;2.70;;;13.20;99.90;;;;;;5059591;28;20572;-85
2021/09/29 05:19:50;;;;;;;7.75;2.58;;;13.30;99.90;;;;;;5059430;28;20048;-86
2021/09/29 05:22:15;;;;;;;8.60;2.83;;;13.30;99.90;;;;;;5057022;28;20032;-86
2021/09/29 05:24:41;;;;;;;9.75;2.67;;;13.20;99.90;;;;;;5054365;28;20029;-85
2021/09/29 05:27:07;;;;;;;7.72;2.50;;;13.30;99.90;;;;;;5052200;28;20033;-86
2021/09/29 05:29:35;;;;;;;7.28;2.35;;;13.30;99.90;;;;;;5052577;28;20484;-86
2021/09/29 05:32:00;;;;;;;10.40;2.83;;;13.30;99.90;;;;;;5053001;28;20071;-85
2021/09/29 05:34:26;;;;;;;8.70;2.60;;;13.30;99.90;;;;;;5057570;28;20481;-85
2021/09/29 05:36:52;;;;;;;7.97;2.63;;;13.40;99.90;;;;;;5056532;28;20033;-86
2021/09/29 05:39:18;;;;;;;7.05;2.85;;;13.40;99.90;;;;;;5054447;28;20412;-86
2021/09/29 05:41:43;;;;;;;7.05;2.65;;;13.40;99.90;;;;;;5057041;28;20033;-86
2021/09/29 05:44:09;;;;;;;13.13;2.95;;;13.40;99.90;;;;;;5056801;28;20079;-86
2021/09/29 05:46:35;;;;;;;8.18;2.85;;;13.40;99.90;;;;;;5061560;28;20035;-86
2021/09/29 05:49:01;;;;;;;10.30;3.47;;;13.50;99.90;;;;;;5062623;28;20017;-86
2021/09/29 05:51:27;;;;;;;11.23;3.42;;;13.50;99.90;;;;;;5059869;28;20029;-85
2021/09/29 05:53:52;;;;;;;8.07;2.83;;;13.50;99.90;;;;;;5063122;28;20428;-85
2021/09/29 05:56:18;;;;;;;8.55;2.97;;;13.50;99.90;;;;;;5062566;28;20101;-86
2021/09/29 05:58:44;;;;;;;10.98;3.25;;;13.50;99.90;;;;;;5064432;28;20055;-86
2021/09/29 06:01:10;;;;;;;9.18;2.92;;;13.60;99.90;;;;;;5067420;28;20013;-86
2021/09/29 06:03:35;;;;;;;9.82;2.80;;;13.60;99.90;;;;;;5064489;28;20069;-86
2021/09/29 06:06:01;;;;;;;10.38;2.47;;;13.60;99.90;;;;;;5056706;28;20505;-85
2021/09/29 06:08:27;;;;;;;8.63;2.72;;;13.60;99.90;;;;;;5055870;28;20025;-86
2021/09/29 06:10:52;;;;;;;13.38;5.35;;;13.60;99.90;;;;;;5055096;28;20445;-86
2021/09/29 06:13:18;;;;;;;8.75;4.07;;;13.70;99.90;;;;;;5055134;28;20029;-86
2021/09/29 06:15:46;;;;;;;6.95;3.72;;;13.70;99.90;;;;;;5055080;28;20032;-85
2021/09/29 06:18:15;;;;;;;9.65;3.00;;;13.70;99.90;;;;;;5055458;28;20033;-86
2021/09/29 06:20:49;;;;;;;9.82;2.88;;;13.80;99.90;;;;;;5054827;28;20067;-85
2021/09/29 06:23:16;;;;;;;7.30;2.67;;;13.80;99.90;;;;;;5056201;28;20029;-85
2021/09/29 06:25:43;;;;;;;6.93;3.10;;;13.80;99.90;;;;;;5055637;28;20029;-85
2021/09/29 06:28:09;;;;;;;9.75;2.97;;;13.80;99.90;;;;;;5057125;28;20024;-85
2021/09/29 06:30:35;;;;;;;8.90;4.10;;;13.70;99.90;;;;;;5056907;28;20048;-86
2021/09/29 06:33:01;;;;;;;10.50;3.42;;;13.70;99.90;;;;;;5058286;28;20074;-85
2021/09/29 06:35:29;;;;;;;10.27;2.97;;;13.70;99.90;;;;;;5055568;28;20116;-85
2021/09/29 06:37:56;;;;;;;9.75;3.03;;;13.70;99.90;;;;;;5055181;28;20028;-86
2021/09/29 06:40:22;;;;;;;9.48;3.22;;;13.70;99.90;;;;;;5055752;28;20025;-86
2021/09/29 06:42:48;;;;;;;9.73;3.08;;;13.70;99.90;;;;;;5054473;28;20453;-85
2021/09/29 06:45:15;;;;;;;7.80;2.72;;;13.70;99.90;;;;;;5055108;28;20559;-86
2021/09/29 06:47:41;;;;;;;10.45;3.00;;;13.70;99.90;;;;;;5053195;28;20174;-85
2021/09/29 06:50:10;;;;;;;8.77;3.00;;;13.70;99.90;;;;;;5054156;28;20055;-85
2021/09/29 06:52:37;;;;;;;8.88;2.80;;;13.70;99.90;;;;;;5053361;28;20095;-85
2021/09/29 06:55:05;;;;;;;8.30;3.00;;;13.70;99.90;;;;;;5054424;28;20115;-85
2021/09/29 06:57:31;;;;;;;8.73;3.28;;;13.70;99.90;;;;;;5053640;28;20025;-86
2021/09/29 06:59:56;;;;;;;8.00;3.30;;;13.70;99.90;;;;;;5053013;28;20039;-86
2021/09/29 07:02:22;;;;;;;11.02;4.30;;;13.60;99.90;;;;;;5053411;28;20113;-85
2021/09/29 07:04:48;;;;;;;6.75;3.03;;;13.70;99.90;;;;;;5053804;28;20029;-85
2021/09/29 07:07:13;;;;;;;8.10;3.28;;;13.70;99.90;;;;;;5054645;28;20025;-86
2021/09/29 07:09:39;;;;;;;9.57;4.00;;;13.70;99.90;;;;;;5053437;28;20032;-85
2021/09/29 07:12:06;;;;;;;8.60;3.60;;;13.70;99.90;;;;;;5053428;28;20963;-85
2021/09/29 07:14:32;;;;;;;9.85;3.47;;;13.70;99.90;;;;;;5053397;28;20021;-85
2021/09/29 07:16:58;;;;;;;8.85;3.58;;;13.60;99.90;;;;;;5059805;22;20071;-85
2021/09/29 07:19:24;;;;;;;9.95;3.55;;;13.70;99.90;;;;;;5049000;28;20026;-85
2021/09/29 07:21:49;;;;;;;9.35;4.15;;;13.70;99.90;;;;;;5049429;28;20048;-85
2021/09/29 07:24:15;;;;;;;10.85;4.10;;;13.70;99.90;;;;;;5049302;28;20056;-85
2021/09/29 07:26:40;;;;;;;9.32;3.42;;;13.70;99.90;;;;;;5049732;28;20116;-85
2021/09/29 07:29:06;;;;;;;8.57;4.00;;;13.70;99.90;;;;;;5032220;28;20180;-85
2021/09/29 07:31:32;;;;;;;10.20;4.72;;;13.70;99.90;;;;;;5048907;28;20044;-85
2021/09/29 07:33:58;;;;;;;9.25;3.95;;;13.70;99.90;;;;;;5033923;28;20037;-85
2021/09/29 07:36:24;;;;;;;8.32;3.58;;;13.80;99.90;;;;;;5049740;28;20056;-84
2021/09/29 07:38:49;;;;;;;13.18;3.72;;;13.70;99.90;;;;;;5033654;28;20025;-85
2021/09/29 07:41:15;;;;;;;9.55;3.60;;;13.70;99.90;;;;;;5048652;28;20030;-85
2021/09/29 07:43:41;;;;;;;7.97;2.95;;;13.80;99.90;;;;;;5049099;28;20036;-85
2021/09/29 07:46:07;;;;;;;8.88;3.40;;;13.80;99.90;;;;;;5033541;28;20108;-85
2021/09/29 07:48:33;;;;;;;10.18;3.45;;;13.80;99.90;;;;;;5048795;28;20060;-85
2021/09/29 07:51:00;;;;;;;8.30;3.60;;;13.80;99.90;;;;;;5048328;28;20030;-86
2021/09/29 07:53:26;;;;;;;9.48;3.70;;;13.80;99.90;;;;;;5033385;28;20057;-85
2021/09/29 07:55:55;;;;;;;10.77;4.05;;;13.90;99.90;;;;;;5048575;28;20030;-85
2021/09/29 07:58:22;;;;;;;10.10;3.65;;;13.90;99.90;;;;;;5048726;28;20080;-85
2021/09/29 08:00:48;;;;;;;9.50;3.72;;;14.00;99.90;;;;;;5048176;28;20067;-85
2021/09/29 08:03:14;;;;;;;9.65;4.05;;;14.00;99.90;;;;;;5033105;28;20433;-85
2021/09/29 08:05:40;;;;;;;5.32;2.88;;;14.00;99.90;;;;;;5048593;28;20030;-85
2021/09/29 08:08:06;;;;;;;8.27;3.17;;;14.00;99.90;;;;;;5032102;28;20030;-85
2021/09/29 08:10:32;;;;;;;12.45;4.20;;;14.00;99.90;;;;;;5031943;28;20032;-85
2021/09/29 08:12:58;;;;;;;28.40;13.52;;;14.00;99.90;;;;;;5033263;28;20033;-85
2021/09/29 08:15:23;;;;;;;13.40;4.55;;;14.00;99.90;;;;;;5048115;28;20033;-86
2021/09/29 08:17:50;;;;;;;9.65;4.10;;;13.90;99.90;;;;;;5048313;28;20093;-85
2021/09/29 08:20:19;;;;;;;9.15;3.67;;;13.90;99.90;;;;;;5047954;28;20102;-85
2021/09/29 08:22:49;;;;;;;10.70;3.88;;;13.90;99.90;;;;;;5048158;28;20029;-85
2021/09/29 08:31:02;;;;;;;9.00;4.05;;;13.90;99.90;;;;;;5030399;28;20113;-85
2021/09/29 08:36:14;;;;;;;8.45;3.78;;;13.90;99.90;;;;;;5032844;28;20033;-85
2021/09/29 08:38:48;;;;;;;9.07;3.20;;;13.90;99.90;;;;;;5031879;28;20037;-85
2021/09/29 08:42:03;;;;;;;9.32;3.67;;;13.90;99.90;;;;;;5048262;28;20036;-85
2021/09/29 08:44:05;;;;;;;8.40;3.42;;;13.80;99.90;;;;;;5032378;28;20033;-85
2021/09/29 08:47:22;;;;;;;9.45;3.35;;;13.80;99.90;;;;;;5048377;28;20504;-85
2021/09/29 08:49:44;;;;;;;8.43;3.75;;;13.90;99.90;;;;;;5031865;28;20037;-85
2021/09/29 09:16:32;;;;;;;8.55;4.75;;;13.90;99.90;;;;;;5035184;28;20036;-85
2021/09/29 09:19:04;;;;;;;14.43;5.47;;;13.90;99.90;;;;;;5032853;28;20076;-85
2021/09/29 09:21:41;;;;;;;12.68;4.80;;;13.90;99.90;;;;;;5052892;28;20049;-85
2021/09/29 09:24:22;;;;;;;9.90;3.97;;;13.90;99.90;;;;;;5052641;28;20091;-85
2021/09/29 09:26:59;;;;;;;8.65;3.83;;;13.90;99.90;;;;;;5036339;28;20028;-85
2021/09/29 09:29:25;;;;;;;8.70;4.05;;;13.90;99.90;;;;;;5051323;28;20389;-85
2021/09/29 09:31:50;;;;;;;8.55;3.50;;;13.90;99.90;;;;;;5051443;28;20032;-85
2021/09/29 09:34:16;;;;;;;6.05;3.50;;;14.00;99.90;;;;;;5052005;28;20038;-85
2021/09/29 09:36:47;;;;;;;7.55;3.50;;;14.00;99.90;;;;;;5035073;28;20026;-85
2021/09/29 09:39:25;;;;;;;7.22;3.38;;;14.10;99.90;;;;;;5036152;28;20441;-85
2021/09/29 09:41:53;;;;;;;7.38;2.63;;;14.10;99.90;;;;;;5035249;28;20029;-85
2021/09/29 09:44:27;;;;;;;4.88;2.30;;;14.10;99.90;;;;;;5051420;28;20129;-85
2021/09/29 09:47:18;;;;;;;5.60;1.80;;;14.10;99.90;;;;;;5052041;28;20048;-85
2021/09/29 09:49:56;;;;;;;4.15;1.17;;;14.10;99.90;;;;;;5046944;28;20033;-86
2021/09/29 09:52:32;;;;;;;2.00;0.80;;;14.10;99.90;;;;;;5052045;28;20025;-85
2021/09/29 09:55:16;;;;;;;3.08;0.85;;;14.00;99.90;;;;;;5051905;28;20631;-85
2021/09/29 09:57:43;;;;;;;1.95;0.77;;;14.00;99.90;;;;;;5035481;28;20021;-85
2021/09/29 10:00:15;;;;;;;1.55;0.80;;;14.00;99.90;;;;;;5051031;28;20029;-85
2021/09/29 10:02:46;;;;;;;3.72;1.00;;;13.90;99.90;;;;;;5051717;28;20084;-84
2021/09/29 10:05:17;;;;;;;3.00;0.77;;;13.90;99.90;;;;;;5051467;28;20083;-85
2021/09/29 10:07:45;;;;;;;1.05;0.65;;;13.90;99.90;;;;;;5051606;28;20018;-85
2021/09/29 10:26:07;;;;;;;2.65;1.20;;;13.70;99.90;;;;;;5035957;28;20075;-85
2021/09/29 10:27:22;;;;;;;3.63;1.33;;;13.70;99.90;;;;;;5035983;28;20021;-85
2021/09/29 10:29:57;;;;;;;1.53;0.83;;;13.70;99.90;;;;;;5050841;28;20026;-85
2021/09/29 10:40:55;;;;;;;4.80;1.77;;;13.70;99.90;;;;;;5035612;28;20026;-85
2021/09/29 10:43:45;;;;;;;5.35;2.75;;;13.70;99.90;;;;;;5036172;28;20039;-85
2021/09/29 11:28:07;;;;;;;3.47;1.80;;;13.70;99.90;;;;;;5035011;28;20072;-85
2021/09/29 11:33:44;;;;;;;3.35;1.33;;;13.60;99.90;;;;;;5033703;28;20105;-85
2021/09/29 12:07:56;;;;;;;4.57;2.30;;;13.50;99.90;;;;;;5033438;28;20037;-86
2021/09/29 12:14:46;;;;;;;4.63;2.50;;;14.00;99.90;;;;;;5033437;28;20036;-85
2021/09/29 12:17:12;;;;;;;6.88;2.38;;;14.00;99.90;;;;;;5048434;28;20572;-86
2021/09/29 12:19:41;;;;;;;4.18;2.30;;;14.00;99.90;;;;;;5048884;28;20087;-86
2021/09/29 12:22:17;;;;;;;4.10;1.80;;;14.00;99.90;;;;;;5050491;28;20032;-86
2021/09/29 12:27:20;;;;;;;4.03;2.10;;;14.10;99.90;;;;;;5033389;28;20030;-86
2021/09/29 12:29:57;;;;;;;4.75;2.20;;;14.10;99.90;;;;;;5031309;28;20021;-85
2021/09/29 12:35:15;;;;;;;3.63;1.80;;;14.10;99.90;;;;;;5033507;28;20026;-86
2021/09/29 12:37:59;;;;;;;2.83;1.40;;;14.10;99.90;;;;;;5033256;28;20485;-86
2021/09/29 12:40:27;;;;;;;4.43;1.67;;;14.00;99.90;;;;;;5032690;28;20038;-85
2021/09/29 12:43:04;;;;;;;3.58;1.50;;;14.00;99.90;;;;;;5032193;28;20496;-86
2021/09/29 12:45:39;;;;;;;3.40;1.40;;;13.90;99.90;;;;;;5031402;28;20029;-85
2021/09/29 12:48:07;;;;;;;4.28;1.48;;;13.90;99.90;;;;;;5047867;28;20026;-85
2021/09/29 12:50:55;;;;;;;4.43;1.73;;;13.90;99.90;;;;;;5031976;28;20021;-85
2021/09/29 12:58:22;;;;;;;3.55;0.80;;;13.70;99.90;;;;;;5032552;28;20479;-85
2021/09/29 13:00:48;;;;;;;2.92;0.90;;;13.40;99.90;;;;;;5030590;28;20467;-85
2021/09/29 13:03:14;;;;;;;7.05;1.30;;;13.00;99.90;;;;;;5031223;28;20054;-85
2021/09/29 13:05:42;;;;;;;11.52;2.15;;;12.80;99.90;;;;;;5047702;28;20103;-86
2021/09/29 13:08:08;;;;;;;10.67;1.70;;;12.40;99.90;;;;;;5048149;28;20470;-85
2021/09/29 13:10:34;;;;;;;4.40;1.37;;;12.20;99.90;;;;;;5047800;28;20032;-85
2021/09/29 13:13:00;;;;;;;4.33;0.80;;;12.10;99.90;;;;;;5031619;28;20029;-85
2021/09/29 13:15:26;;;;;;;2.33;0.70;;;12.00;99.90;;;;;;5032855;28;20474;-84
2021/09/29 13:17:55;;;;;;;1.23;0.63;;;11.90;99.90;;;;;;5047853;28;20037;-84
2021/09/29 13:20:25;;;;;;;2.30;0.70;;;11.90;99.90;;;;;;5047690;28;20395;-84
2021/09/29 13:23:09;;;;;;;2.10;0.60;;;11.90;99.90;;;;;;5048498;28;20029;-85
2021/09/29 13:39:09;;;;;;;3.47;1.10;;;12.50;99.90;;;;;;5032961;28;20032;-85
2021/09/29 13:41:36;;;;;;;3.10;1.13;;;12.70;99.90;;;;;;5048137;28;20022;-85
2021/09/29 13:44:12;;;;;;;1.50;0.60;;;12.90;99.90;;;;;;5032831;28;20417;-85
2021/09/29 13:46:39;;;;;;;3.90;0.97;;;13.00;99.90;;;;;;5033008;28;20026;-85
2021/09/29 13:49:07;;;;;;;1.13;0.50;;;13.10;99.90;;;;;;5047662;28;20044;-85
2021/09/29 13:51:34;;;;;;;2.40;0.70;;;13.20;99.90;;;;;;5048036;28;20489;-85
2021/09/29 13:54:07;;;;;;;1.05;0.50;;;13.20;99.90;;;;;;5032346;28;20462;-85
2021/09/29 13:56:43;;;;;;;0.98;0.57;;;13.30;99.90;;;;;;5032451;28;20456;-85
2021/09/29 14:29:29;;;;;;;4.75;1.10;;;13.80;99.90;;;;;;5035937;28;20051;-85
2021/09/29 14:34:23;;;;;;;8.05;1.30;;;13.90;99.90;;;;;;5035594;28;20474;-86
2021/09/29 14:36:49;;;;;;;6.63;1.30;;;14.00;99.90;;;;;;5034906;28;20025;-85
2021/09/29 14:39:15;;;;;;;9.73;2.67;;;14.00;99.90;;;;;;5049906;28;20414;-85
2021/09/29 14:41:42;;;;;;;5.93;1.27;;;14.00;99.90;;;;;;5034841;28;20393;-85
2021/09/29 14:44:08;;;;;;;6.97;1.52;;;13.90;99.90;;;;;;5050308;28;20394;-85
2021/09/29 14:46:34;;;;;;;6.13;1.58;;;13.90;99.90;;;;;;5050322;28;20417;-85
2021/09/29 14:49:00;;;;;;;8.85;1.20;;;13.90;99.90;;;;;;5049835;28;20060;-86
2021/09/29 14:51:26;;;;;;;5.95;1.30;;;13.80;99.90;;;;;;5050386;28;20022;-86
2021/09/29 14:53:54;;;;;;;6.70;1.20;;;13.80;99.90;;;;;;5033566;28;20115;-85
2021/09/29 14:56:21;;;;;;;6.72;2.50;;;13.70;99.90;;;;;;5050087;28;20036;-86
2021/09/29 14:58:48;;;;;;;7.60;2.13;;;13.70;99.90;;;;;;5049840;28;20045;-85
2021/09/29 15:01:14;;;;;;;3.60;1.30;;;13.60;99.90;;;;;;5033478;28;20485;-86
2021/09/29 15:03:41;;;;;;;4.15;0.63;;;13.60;99.90;;;;;;5035041;28;20385;-86
2021/09/29 15:06:07;;;;;;;2.05;0.73;;;13.50;99.90;;;;;;5033472;28;20029;-86
2021/09/29 15:08:36;;;;;;;3.03;0.98;;;13.50;99.90;;;;;;5034623;28;20030;-85
2021/09/29 15:11:04;;;;;;;3.83;1.00;;;13.60;99.90;;;;;;5049395;28;20117;-86
2021/09/29 15:13:35;;;;;;;2.85;0.88;;;13.80;99.90;;;;;;5049662;28;20036;-86
2021/09/29 15:16:05;;;;;;;2.95;1.00;;;14.10;99.70;;;;;;5049732;28;20053;-86
2021/09/29 15:18:40;;;;;;;3.58;0.90;;;14.50;99.30;;;;;;5049595;28;20025;-86
2021/09/29 15:21:44;;;;;;;3.80;0.93;;;14.80;98.40;;;;;;5032367;28;20113;-85
2021/09/29 15:32:35;;;;;;;4.80;1.30;;;15.60;96.80;;;;;;5031630;28;20065;-86
2021/09/29 15:48:51;;;;;;;3.50;1.38;;;14.60;99.10;;;;;;5034080;28;20060;-85
2021/09/29 15:54:09;;;;;;;4.45;1.10;;;14.40;99.90;;;;;;5034241;28;20029;-86
2021/09/29 16:02:05;;;;;;;7.28;1.73;;;14.30;99.90;;;;;;5033495;28;20091;-86
2021/09/29 16:04:52;;;;;;;4.82;1.70;;;14.20;99.90;;;;;;5033750;28;20021;-86
2021/09/29 16:15:45;;;;;;;5.22;1.35;;;14.10;99.90;;;;;;5034866;28;20056;-86
2021/09/29 16:18:28;;;;;;;5.55;1.23;;;14.10;99.90;;;;;;5033095;28;20037;-86
2021/09/29 16:32:09;;;;;;;5.20;1.17;;;14.00;99.90;;;;;;5032490;28;20040;-86
2021/09/29 16:34:45;;;;;;;;;;;14.00;99.90;;;;;;5032105;28;20037;-85
2021/09/29 16:37:11;;;;;;;4.88;1.10;;;14.10;99.90;;;;;;5031210;28;19954;-86
2021/09/29 16:39:37;;;;;;;4.97;0.85;;;14.00;99.90;;;;;;5047277;28;20493;-85
2021/09/29 16:42:03;;;;;;;3.38;0.80;;;14.00;99.90;;;;;;5032377;28;20018;-85
2021/09/29 16:44:29;;;;;;;5.63;2.28;;;13.90;99.90;;;;;;5032302;28;20049;-86
2021/09/29 16:46:56;;;;;;;4.88;1.80;;;13.90;99.90;;;;;;5047556;28;20474;-86
2021/09/29 16:49:25;;;;;;;3.25;1.17;;;13.90;99.90;;;;;;5031649;28;20036;-87
2021/09/29 16:52:39;;;;;;;;;;;13.90;99.90;;;;;;5048201;28;20021;-86
2021/09/29 16:54:40;;;;;;;2.88;0.93;;;13.90;99.90;;;;;;5029010;28;19909;-85